sensor_id;sensor_type;location;lat;lon;timestamp;temperature;humidity
16198;DHT22;8206;51.440;6.914;2022-10-16T00:02:10;12.80;99.90
16198;DHT22;8206;51.440;6.914;2022-10-16T00:04:37;12.80;99.90
16198;DHT22;8206;51.440;6.914;2022-10-16T00:07:03;12.80;99.90
16198;DHT22;8206;51.440;6.914;2022-10-16T00:09:30;12.70;99.90
16198;DHT22;8206;51.440;6.914;2022-10-16T00:11:57;12.80;99.90
16198;DHT22;8206;51.440;6.914;2022-10-16T00:14:24;12.70;99.90
16198;DHT22;8206;51.440;6.914;2022-10-16T00:16:50;12.70;99.90
16198;DHT22;8206;51.440;6.914;2022-10-16T00:19:18;12.70;99.90
16198;DHT22;8206;51.440;6.914;2022-10-16T00:21:45;12.70;99.90
16198;DHT22;8206;51.440;6.914;2022-10-16T00:24:12;12.70;99.90
16198;DHT22;8206;51.440;6.914;2022-10-16T00:26:39;12.70;99.90
16198;DHT22;8206;51.440;6.914;2022-10-16T00:29:06;12.60;99.90
16198;DHT22;8206;51.440;6.914;2022-10-16T00:31:33;12.60;99.90
16198;DHT22;8206;51.440;6.914;2022-10-16T00:34:00;12.60;99.90
16198;DHT22;8206;51.440;6.914;2022-10-16T00:36:29;12.60;99.90
16198;DHT22;8206;51.440;6.914;2022-10-16T00:38:57;12.60;99.90
16198;DHT22;8206;51.440;6.914;2022-10-16T00:41:26;12.60;99.90
16198;DHT22;8206;51.440;6.914;2022-10-16T00:43:55;12.60;99.90
16198;DHT22;8206;51.440;6.914;2022-10-16T00:46:24;12.60;99.90
16198;DHT22;8206;51.440;6.914;2022-10-16T00:48:55;12.60;99.90
16198;DHT22;8206;51.440;6.914;2022-10-16T00:51:26;12.70;99.90
16198;DHT22;8206;51.440;6.914;2022-10-16T00:53:56;12.70;99.90
16198;DHT22;8206;51.440;6.914;2022-10-16T00:56:23;12.60;99.90
16198;DHT22;8206;51.440;6.914;2022-10-16T00:58:49;12.60;99.90
16198;DHT22;8206;51.440;6.914;2022-10-16T01:01:16;12.60;99.90
16198;DHT22;8206;51.440;6.914;2022-10-16T01:03:43;12.60;99.90
16198;DHT22;8206;51.440;6.914;2022-10-16T01:06:21;12.60;99.90
16198;DHT22;8206;51.440;6.914;2022-10-16T01:09:00;12.50;99.90
16198;DHT22;8206;51.440;6.914;2022-10-16T01:11:37;12.50;99.90
16198;DHT22;8206;51.440;6.914;2022-10-16T01:14:13;12.50;99.90
16198;DHT22;8206;51.440;6.914;2022-10-16T01:16:44;12.50;99.90
16198;DHT22;8206;51.440;6.914;2022-10-16T01:19:17;12.50;99.90
16198;DHT22;8206;51.440;6.914;2022-10-16T01:21:47;12.50;99.90
16198;DHT22;8206;51.440;6.914;2022-10-16T01:27:07;12.50;99.90
16198;DHT22;8206;51.440;6.914;2022-10-16T01:29:38;12.50;99.90
16198;DHT22;8206;51.440;6.914;2022-10-16T01:32:25;12.40;99.90
16198;DHT22;8206;51.440;6.914;2022-10-16T01:34:59;12.40;99.90
16198;DHT22;8206;51.440;6.914;2022-10-16T01:37:33;12.30;99.90
16198;DHT22;8206;51.440;6.914;2022-10-16T01:40:05;12.30;99.90
16198;DHT22;8206;51.440;6.914;2022-10-16T01:42:35;12.30;99.90
16198;DHT22;8206;51.440;6.914;2022-10-16T01:45:05;12.40;99.90
16198;DHT22;8206;51.440;6.914;2022-10-16T01:47:35;12.50;99.90
16198;DHT22;8206;51.440;6.914;2022-10-16T01:50:04;12.60;99.90
16198;DHT22;8206;51.440;6.914;2022-10-16T01:52:35;12.70;99.90
16198;DHT22;8206;51.440;6.914;2022-10-16T01:55:05;12.70;99.90
16198;DHT22;8206;51.440;6.914;2022-10-16T01:57:36;12.70;99.90
16198;DHT22;8206;51.440;6.914;2022-10-16T02:00:09;12.70;99.90
16198;DHT22;8206;51.440;6.914;2022-10-16T02:02:39;12.70;99.90
16198;DHT22;8206;51.440;6.914;2022-10-16T02:05:12;12.70;99.90
16198;DHT22;8206;51.440;6.914;2022-10-16T02:07:41;12.70;99.90
16198;DHT22;8206;51.440;6.914;2022-10-16T02:10:09;12.70;99.90
16198;DHT22;8206;51.440;6.914;2022-10-16T02:12:39;12.80;99.90
16198;DHT22;8206;51.440;6.914;2022-10-16T02:15:08;12.90;99.90
16198;DHT22;8206;51.440;6.914;2022-10-16T02:17:35;12.90;99.90
16198;DHT22;8206;51.440;6.914;2022-10-16T02:20:03;12.90;99.90
16198;DHT22;8206;51.440;6.914;2022-10-16T02:22:32;12.90;99.90
16198;DHT22;8206;51.440;6.914;2022-10-16T02:25:04;12.70;99.90
16198;DHT22;8206;51.440;6.914;2022-10-16T02:27:34;12.70;99.90
16198;DHT22;8206;51.440;6.914;2022-10-16T02:30:11;12.60;99.90
16198;DHT22;8206;51.440;6.914;2022-10-16T02:32:41;12.60;99.90
16198;DHT22;8206;51.440;6.914;2022-10-16T02:35:10;12.60;99.90
16198;DHT22;8206;51.440;6.914;2022-10-16T02:37:38;12.70;99.90
16198;DHT22;8206;51.440;6.914;2022-10-16T02:40:07;12.80;99.90
16198;DHT22;8206;51.440;6.914;2022-10-16T02:42:36;12.80;99.90
16198;DHT22;8206;51.440;6.914;2022-10-16T02:45:04;13.00;99.90
16198;DHT22;8206;51.440;6.914;2022-10-16T02:47:32;13.00;99.90
16198;DHT22;8206;51.440;6.914;2022-10-16T02:49:59;13.00;99.90
16198;DHT22;8206;51.440;6.914;2022-10-16T02:52:26;13.00;99.90
16198;DHT22;8206;51.440;6.914;2022-10-16T02:54:53;12.90;99.90
16198;DHT22;8206;51.440;6.914;2022-10-16T02:57:20;12.90;99.90
16198;DHT22;8206;51.440;6.914;2022-10-16T02:59:46;12.90;99.90
16198;DHT22;8206;51.440;6.914;2022-10-16T03:02:13;12.90;99.90
16198;DHT22;8206;51.440;6.914;2022-10-16T03:04:41;12.80;99.90
16198;DHT22;8206;51.440;6.914;2022-10-16T03:07:08;12.80;99.90
16198;DHT22;8206;51.440;6.914;2022-10-16T03:09:35;12.90;99.90
16198;DHT22;8206;51.440;6.914;2022-10-16T03:12:02;12.90;99.90
16198;DHT22;8206;51.440;6.914;2022-10-16T03:14:29;12.90;99.90
16198;DHT22;8206;51.440;6.914;2022-10-16T03:16:55;12.90;99.90
16198;DHT22;8206;51.440;6.914;2022-10-16T03:19:22;12.80;99.90
16198;DHT22;8206;51.440;6.914;2022-10-16T03:21:50;12.80;99.90
16198;DHT22;8206;51.440;6.914;2022-10-16T03:24:17;12.80;99.90
16198;DHT22;8206;51.440;6.914;2022-10-16T03:26:44;12.90;99.90
16198;DHT22;8206;51.440;6.914;2022-10-16T03:29:10;12.80;99.90
16198;DHT22;8206;51.440;6.914;2022-10-16T03:31:37;12.80;99.90
16198;DHT22;8206;51.440;6.914;2022-10-16T03:34:04;12.80;99.90
16198;DHT22;8206;51.440;6.914;2022-10-16T03:36:30;12.70;99.90
16198;DHT22;8206;51.440;6.914;2022-10-16T03:38:59;12.70;99.90
16198;DHT22;8206;51.440;6.914;2022-10-16T03:41:25;12.70;99.90
16198;DHT22;8206;51.440;6.914;2022-10-16T03:43:52;12.70;99.90
16198;DHT22;8206;51.440;6.914;2022-10-16T03:46:19;12.70;99.90
16198;DHT22;8206;51.440;6.914;2022-10-16T03:48:45;12.60;99.90
16198;DHT22;8206;51.440;6.914;2022-10-16T03:51:12;12.50;99.90
16198;DHT22;8206;51.440;6.914;2022-10-16T03:53:39;12.40;99.90
16198;DHT22;8206;51.440;6.914;2022-10-16T03:56:07;12.40;99.90
16198;DHT22;8206;51.440;6.914;2022-10-16T03:58:34;12.30;99.90
16198;DHT22;8206;51.440;6.914;2022-10-16T04:01:01;12.30;99.90
16198;DHT22;8206;51.440;6.914;2022-10-16T04:03:28;12.20;99.90
16198;DHT22;8206;51.440;6.914;2022-10-16T04:05:54;12.30;99.90
16198;DHT22;8206;51.440;6.914;2022-10-16T04:08:21;12.20;99.90
16198;DHT22;8206;51.440;6.914;2022-10-16T04:10:48;12.30;99.90
16198;DHT22;8206;51.440;6.914;2022-10-16T04:13:16;12.30;99.90
16198;DHT22;8206;51.440;6.914;2022-10-16T04:15:44;12.30;99.90
16198;DHT22;8206;51.440;6.914;2022-10-16T04:18:11;12.30;99.90
16198;DHT22;8206;51.440;6.914;2022-10-16T04:20:38;12.30;99.90
16198;DHT22;8206;51.440;6.914;2022-10-16T04:23:05;12.30;99.90
16198;DHT22;8206;51.440;6.914;2022-10-16T04:25:31;12.30;99.90
16198;DHT22;8206;51.440;6.914;2022-10-16T04:27:58;12.30;99.90
16198;DHT22;8206;51.440;6.914;2022-10-16T04:30:26;12.30;99.90
16198;DHT22;8206;51.440;6.914;2022-10-16T04:32:53;12.30;99.90
16198;DHT22;8206;51.440;6.914;2022-10-16T04:35:21;12.20;99.90
16198;DHT22;8206;51.440;6.914;2022-10-16T04:37:48;12.20;99.90
16198;DHT22;8206;51.440;6.914;2022-10-16T04:40:16;12.20;99.90
16198;DHT22;8206;51.440;6.914;2022-10-16T04:42:43;12.10;99.90
16198;DHT22;8206;51.440;6.914;2022-10-16T04:45:09;12.10;99.90
16198;DHT22;8206;51.440;6.914;2022-10-16T04:47:38;12.10;99.90
16198;DHT22;8206;51.440;6.914;2022-10-16T04:50:05;12.10;99.90
16198;DHT22;8206;51.440;6.914;2022-10-16T04:52:32;12.00;99.90
16198;DHT22;8206;51.440;6.914;2022-10-16T04:54:59;12.10;99.90
16198;DHT22;8206;51.440;6.914;2022-10-16T04:57:28;12.10;99.90
16198;DHT22;8206;51.440;6.914;2022-10-16T04:59:55;12.10;99.90
16198;DHT22;8206;51.440;6.914;2022-10-16T05:02:22;12.20;99.90
16198;DHT22;8206;51.440;6.914;2022-10-16T05:04:51;12.10;99.90
16198;DHT22;8206;51.440;6.914;2022-10-16T05:07:18;12.10;99.90
16198;DHT22;8206;51.440;6.914;2022-10-16T05:09:44;12.10;99.90
16198;DHT22;8206;51.440;6.914;2022-10-16T05:12:11;12.10;99.90
16198;DHT22;8206;51.440;6.914;2022-10-16T05:14:38;12.20;99.90
16198;DHT22;8206;51.440;6.914;2022-10-16T05:17:05;12.20;99.90
16198;DHT22;8206;51.440;6.914;2022-10-16T05:19:32;12.20;99.90
16198;DHT22;8206;51.440;6.914;2022-10-16T05:22:00;12.20;99.90
16198;DHT22;8206;51.440;6.914;2022-10-16T05:24:26;12.20;99.90
16198;DHT22;8206;51.440;6.914;2022-10-16T05:26:53;12.20;99.90
16198;DHT22;8206;51.440;6.914;2022-10-16T05:29:20;12.20;99.90
16198;DHT22;8206;51.440;6.914;2022-10-16T05:31:50;12.20;99.90
16198;DHT22;8206;51.440;6.914;2022-10-16T05:34:17;12.20;99.90
16198;DHT22;8206;51.440;6.914;2022-10-16T05:36:43;12.20;99.90
16198;DHT22;8206;51.440;6.914;2022-10-16T05:39:13;12.20;99.90
16198;DHT22;8206;51.440;6.914;2022-10-16T05:41:40;12.20;99.90
16198;DHT22;8206;51.440;6.914;2022-10-16T05:44:07;12.20;99.90
16198;DHT22;8206;51.440;6.914;2022-10-16T05:46:34;12.20;99.90
16198;DHT22;8206;51.440;6.914;2022-10-16T05:49:01;12.20;99.90
16198;DHT22;8206;51.440;6.914;2022-10-16T05:51:28;12.20;99.90
16198;DHT22;8206;51.440;6.914;2022-10-16T05:53:54;12.20;99.90
16198;DHT22;8206;51.440;6.914;2022-10-16T05:56:22;12.20;99.90
16198;DHT22;8206;51.440;6.914;2022-10-16T05:58:49;12.20;99.90
16198;DHT22;8206;51.440;6.914;2022-10-16T06:01:17;12.10;99.90
16198;DHT22;8206;51.440;6.914;2022-10-16T06:03:44;12.10;99.90
16198;DHT22;8206;51.440;6.914;2022-10-16T06:06:12;12.10;99.90
16198;DHT22;8206;51.440;6.914;2022-10-16T06:08:40;12.10;99.90
16198;DHT22;8206;51.440;6.914;2022-10-16T06:11:09;12.10;99.90
16198;DHT22;8206;51.440;6.914;2022-10-16T06:13:37;12.10;99.90
16198;DHT22;8206;51.440;6.914;2022-10-16T06:16:07;12.10;99.90
16198;DHT22;8206;51.440;6.914;2022-10-16T06:18:34;12.10;99.90
16198;DHT22;8206;51.440;6.914;2022-10-16T06:21:07;12.10;99.90
16198;DHT22;8206;51.440;6.914;2022-10-16T06:23:34;12.10;99.90
16198;DHT22;8206;51.440;6.914;2022-10-16T06:26:05;12.20;99.90
16198;DHT22;8206;51.440;6.914;2022-10-16T06:28:32;12.30;99.90
16198;DHT22;8206;51.440;6.914;2022-10-16T06:31:01;12.30;99.90
16198;DHT22;8206;51.440;6.914;2022-10-16T06:33:27;12.40;99.90
16198;DHT22;8206;51.440;6.914;2022-10-16T06:36:00;12.40;99.90
16198;DHT22;8206;51.440;6.914;2022-10-16T06:38:27;12.40;99.90
16198;DHT22;8206;51.440;6.914;2022-10-16T06:40:53;12.50;99.90
16198;DHT22;8206;51.440;6.914;2022-10-16T06:43:20;12.60;99.90
16198;DHT22;8206;51.440;6.914;2022-10-16T06:45:50;12.60;99.90
16198;DHT22;8206;51.440;6.914;2022-10-16T06:48:19;12.70;99.90
16198;DHT22;8206;51.440;6.914;2022-10-16T06:50:55;12.70;99.90
16198;DHT22;8206;51.440;6.914;2022-10-16T06:53:22;12.80;99.90
16198;DHT22;8206;51.440;6.914;2022-10-16T06:55:48;12.80;99.90
16198;DHT22;8206;51.440;6.914;2022-10-16T06:58:15;12.80;99.90
16198;DHT22;8206;51.440;6.914;2022-10-16T07:00:42;12.80;99.90
16198;DHT22;8206;51.440;6.914;2022-10-16T07:03:09;12.80;99.90
16198;DHT22;8206;51.440;6.914;2022-10-16T07:05:39;12.70;99.90
16198;DHT22;8206;51.440;6.914;2022-10-16T07:08:06;12.70;99.90
16198;DHT22;8206;51.440;6.914;2022-10-16T07:10:33;12.70;99.90
16198;DHT22;8206;51.440;6.914;2022-10-16T07:13:00;12.70;99.90
16198;DHT22;8206;51.440;6.914;2022-10-16T07:15:27;12.70;99.90
16198;DHT22;8206;51.440;6.914;2022-10-16T07:17:54;12.70;99.90
16198;DHT22;8206;51.440;6.914;2022-10-16T07:20:21;12.70;99.90
16198;DHT22;8206;51.440;6.914;2022-10-16T07:22:49;12.70;99.90
16198;DHT22;8206;51.440;6.914;2022-10-16T07:25:16;12.70;99.90
16198;DHT22;8206;51.440;6.914;2022-10-16T07:27:42;12.70;99.90
16198;DHT22;8206;51.440;6.914;2022-10-16T07:30:10;12.60;99.90
16198;DHT22;8206;51.440;6.914;2022-10-16T07:32:37;12.70;99.90
16198;DHT22;8206;51.440;6.914;2022-10-16T07:35:04;12.70;99.90
16198;DHT22;8206;51.440;6.914;2022-10-16T07:37:31;12.80;99.90
16198;DHT22;8206;51.440;6.914;2022-10-16T07:39:59;12.90;99.90
16198;DHT22;8206;51.440;6.914;2022-10-16T07:42:27;13.00;99.90
16198;DHT22;8206;51.440;6.914;2022-10-16T07:44:54;13.00;99.90
16198;DHT22;8206;51.440;6.914;2022-10-16T07:47:20;13.10;99.90
16198;DHT22;8206;51.440;6.914;2022-10-16T07:49:47;13.20;99.90
16198;DHT22;8206;51.440;6.914;2022-10-16T07:52:14;13.20;99.90
16198;DHT22;8206;51.440;6.914;2022-10-16T07:54:41;13.30;99.90
16198;DHT22;8206;51.440;6.914;2022-10-16T07:57:09;13.40;99.90
16198;DHT22;8206;51.440;6.914;2022-10-16T07:59:35;13.60;99.90
16198;DHT22;8206;51.440;6.914;2022-10-16T08:02:02;13.60;99.90
16198;DHT22;8206;51.440;6.914;2022-10-16T08:04:29;13.70;99.90
16198;DHT22;8206;51.440;6.914;2022-10-16T08:06:56;13.70;99.90
16198;DHT22;8206;51.440;6.914;2022-10-16T08:09:22;13.80;99.90
16198;DHT22;8206;51.440;6.914;2022-10-16T08:11:49;13.90;99.90
16198;DHT22;8206;51.440;6.914;2022-10-16T08:14:19;13.90;99.90
16198;DHT22;8206;51.440;6.914;2022-10-16T08:16:46;14.00;99.90
16198;DHT22;8206;51.440;6.914;2022-10-16T08:19:12;14.10;99.90
16198;DHT22;8206;51.440;6.914;2022-10-16T08:21:41;14.20;99.90
16198;DHT22;8206;51.440;6.914;2022-10-16T08:24:08;14.10;99.90
16198;DHT22;8206;51.440;6.914;2022-10-16T08:26:35;14.20;99.90
16198;DHT22;8206;51.440;6.914;2022-10-16T08:29:02;14.20;99.90
16198;DHT22;8206;51.440;6.914;2022-10-16T08:31:30;14.40;99.90
16198;DHT22;8206;51.440;6.914;2022-10-16T08:33:57;14.40;99.90
16198;DHT22;8206;51.440;6.914;2022-10-16T08:36:23;14.40;99.90
16198;DHT22;8206;51.440;6.914;2022-10-16T08:38:50;14.50;99.90
16198;DHT22;8206;51.440;6.914;2022-10-16T08:41:31;14.50;99.90
16198;DHT22;8206;51.440;6.914;2022-10-16T08:44:18;14.60;99.90
16198;DHT22;8206;51.440;6.914;2022-10-16T08:46:55;14.70;99.90
16198;DHT22;8206;51.440;6.914;2022-10-16T08:49:26;14.70;99.90
16198;DHT22;8206;51.440;6.914;2022-10-16T08:51:55;14.80;99.90
16198;DHT22;8206;51.440;6.914;2022-10-16T08:54:28;14.80;99.90
16198;DHT22;8206;51.440;6.914;2022-10-16T08:56:55;14.80;99.90
16198;DHT22;8206;51.440;6.914;2022-10-16T08:59:22;14.80;99.90
16198;DHT22;8206;51.440;6.914;2022-10-16T09:01:52;14.80;99.90
16198;DHT22;8206;51.440;6.914;2022-10-16T09:04:51;14.90;99.90
16198;DHT22;8206;51.440;6.914;2022-10-16T09:07:25;15.00;94.10
16198;DHT22;8206;51.440;6.914;2022-10-16T09:10:06;15.00;90.20
16198;DHT22;8206;51.440;6.914;2022-10-16T09:12:40;15.10;98.30
16198;DHT22;8206;51.440;6.914;2022-10-16T09:15:20;15.10;86.30
16198;DHT22;8206;51.440;6.914;2022-10-16T09:17:58;15.20;76.90
16198;DHT22;8206;51.440;6.914;2022-10-16T09:20:34;15.20;64.80
16198;DHT22;8206;51.440;6.914;2022-10-16T09:23:15;15.20;67.20
16198;DHT22;8206;51.440;6.914;2022-10-16T09:25:45;15.40;86.50
16198;DHT22;8206;51.440;6.914;2022-10-16T09:28:14;15.40;56.40
16198;DHT22;8206;51.440;6.914;2022-10-16T09:30:41;15.40;52.60
16198;DHT22;8206;51.440;6.914;2022-10-16T09:33:11;15.50;44.90
16198;DHT22;8206;51.440;6.914;2022-10-16T09:35:41;15.50;38.40
16198;DHT22;8206;51.440;6.914;2022-10-16T09:38:08;15.50;42.60
16198;DHT22;8206;51.440;6.914;2022-10-16T09:40:37;15.60;38.00
16198;DHT22;8206;51.440;6.914;2022-10-16T09:43:16;15.70;21.40
16198;DHT22;8206;51.440;6.914;2022-10-16T09:45:54;15.80;29.20
16198;DHT22;8206;51.440;6.914;2022-10-16T09:48:25;15.90;18.60
16198;DHT22;8206;51.440;6.914;2022-10-16T09:50:58;16.00;4.70
16198;DHT22;8206;51.440;6.914;2022-10-16T09:53:40;16.20;1.00
16198;DHT22;8206;51.440;6.914;2022-10-16T09:56:07;16.30;1.00
16198;DHT22;8206;51.440;6.914;2022-10-16T09:58:35;16.60;1.00
16198;DHT22;8206;51.440;6.914;2022-10-16T10:01:03;16.70;1.00
16198;DHT22;8206;51.440;6.914;2022-10-16T10:03:37;16.70;1.00
16198;DHT22;8206;51.440;6.914;2022-10-16T10:06:18;16.90;1.00
16198;DHT22;8206;51.440;6.914;2022-10-16T10:08:58;17.00;1.00
16198;DHT22;8206;51.440;6.914;2022-10-16T10:11:44;17.00;99.90
16198;DHT22;8206;51.440;6.914;2022-10-16T10:14:27;17.20;99.90
16198;DHT22;8206;51.440;6.914;2022-10-16T10:17:10;17.20;99.90
16198;DHT22;8206;51.440;6.914;2022-10-16T10:19:40;17.30;21.60
16198;DHT22;8206;51.440;6.914;2022-10-16T10:22:17;17.40;1.00
16198;DHT22;8206;51.440;6.914;2022-10-16T10:24:53;17.40;1.00
16198;DHT22;8206;51.440;6.914;2022-10-16T10:27:21;17.50;1.00
16198;DHT22;8206;51.440;6.914;2022-10-16T10:29:56;17.50;1.00
16198;DHT22;8206;51.440;6.914;2022-10-16T10:32:31;17.50;1.00
16198;DHT22;8206;51.440;6.914;2022-10-16T10:35:12;17.50;1.00
16198;DHT22;8206;51.440;6.914;2022-10-16T10:37:51;17.50;1.00
16198;DHT22;8206;51.440;6.914;2022-10-16T10:40:30;17.40;1.00
16198;DHT22;8206;51.440;6.914;2022-10-16T10:43:05;17.20;1.00
16198;DHT22;8206;51.440;6.914;2022-10-16T10:45:42;17.20;1.00
16198;DHT22;8206;51.440;6.914;2022-10-16T10:48:27;17.20;1.00
16198;DHT22;8206;51.440;6.914;2022-10-16T10:51:05;17.10;1.00
16198;DHT22;8206;51.440;6.914;2022-10-16T10:53:42;17.10;1.00
16198;DHT22;8206;51.440;6.914;2022-10-16T10:56:19;17.20;1.00
16198;DHT22;8206;51.440;6.914;2022-10-16T10:59:14;17.20;1.00
16198;DHT22;8206;51.440;6.914;2022-10-16T11:01:48;17.20;1.00
16198;DHT22;8206;51.440;6.914;2022-10-16T11:04:39;17.30;1.00
16198;DHT22;8206;51.440;6.914;2022-10-16T11:07:15;17.30;1.00
16198;DHT22;8206;51.440;6.914;2022-10-16T11:09:47;17.50;1.00
16198;DHT22;8206;51.440;6.914;2022-10-16T11:12:17;17.70;1.00
16198;DHT22;8206;51.440;6.914;2022-10-16T11:14:49;17.90;1.00
16198;DHT22;8206;51.440;6.914;2022-10-16T11:17:19;17.90;1.00
16198;DHT22;8206;51.440;6.914;2022-10-16T11:19:49;17.90;1.00
16198;DHT22;8206;51.440;6.914;2022-10-16T11:22:22;18.00;1.00
16198;DHT22;8206;51.440;6.914;2022-10-16T11:24:54;18.10;1.00
16198;DHT22;8206;51.440;6.914;2022-10-16T11:27:37;18.10;1.00
16198;DHT22;8206;51.440;6.914;2022-10-16T11:30:06;18.20;1.00
16198;DHT22;8206;51.440;6.914;2022-10-16T11:32:49;18.30;1.00
16198;DHT22;8206;51.440;6.914;2022-10-16T11:35:21;18.30;1.00
16198;DHT22;8206;51.440;6.914;2022-10-16T11:37:50;18.20;1.00
16198;DHT22;8206;51.440;6.914;2022-10-16T11:40:22;18.50;1.00
16198;DHT22;8206;51.440;6.914;2022-10-16T11:42:54;18.60;1.00
16198;DHT22;8206;51.440;6.914;2022-10-16T11:45:28;18.70;1.00
16198;DHT22;8206;51.440;6.914;2022-10-16T11:48:01;18.80;1.00
16198;DHT22;8206;51.440;6.914;2022-10-16T11:50:33;18.80;1.00
16198;DHT22;8206;51.440;6.914;2022-10-16T11:53:08;18.80;1.00
16198;DHT22;8206;51.440;6.914;2022-10-16T11:55:40;19.00;1.00
16198;DHT22;8206;51.440;6.914;2022-10-16T11:58:13;19.10;1.00
16198;DHT22;8206;51.440;6.914;2022-10-16T12:00:45;19.20;1.00
16198;DHT22;8206;51.440;6.914;2022-10-16T12:03:19;19.10;1.00
16198;DHT22;8206;51.440;6.914;2022-10-16T12:05:58;19.10;1.00
16198;DHT22;8206;51.440;6.914;2022-10-16T12:08:29;19.10;1.00
16198;DHT22;8206;51.440;6.914;2022-10-16T12:11:07;19.00;1.00
16198;DHT22;8206;51.440;6.914;2022-10-16T12:13:36;19.00;1.00
16198;DHT22;8206;51.440;6.914;2022-10-16T12:16:22;19.00;1.00
16198;DHT22;8206;51.440;6.914;2022-10-16T12:18:50;19.20;1.00
16198;DHT22;8206;51.440;6.914;2022-10-16T12:21:30;19.40;1.00
16198;DHT22;8206;51.440;6.914;2022-10-16T12:24:00;19.20;1.00
16198;DHT22;8206;51.440;6.914;2022-10-16T12:26:32;19.00;1.00
16198;DHT22;8206;51.440;6.914;2022-10-16T12:29:13;18.80;1.00
16198;DHT22;8206;51.440;6.914;2022-10-16T12:31:44;18.70;1.00
16198;DHT22;8206;51.440;6.914;2022-10-16T12:34:21;18.60;1.00
16198;DHT22;8206;51.440;6.914;2022-10-16T12:36:49;18.50;1.00
16198;DHT22;8206;51.440;6.914;2022-10-16T12:39:22;18.50;1.00
16198;DHT22;8206;51.440;6.914;2022-10-16T12:42:01;18.50;1.00
16198;DHT22;8206;51.440;6.914;2022-10-16T12:44:32;18.60;1.00
16198;DHT22;8206;51.440;6.914;2022-10-16T12:47:00;18.70;1.00
16198;DHT22;8206;51.440;6.914;2022-10-16T12:49:34;18.70;1.00
16198;DHT22;8206;51.440;6.914;2022-10-16T12:52:02;18.80;1.00
16198;DHT22;8206;51.440;6.914;2022-10-16T12:54:31;18.80;1.00
16198;DHT22;8206;51.440;6.914;2022-10-16T12:57:26;18.70;1.00
16198;DHT22;8206;51.440;6.914;2022-10-16T13:00:03;18.50;1.00
16198;DHT22;8206;51.440;6.914;2022-10-16T13:02:55;18.40;1.00
16198;DHT22;8206;51.440;6.914;2022-10-16T13:05:32;18.30;1.00
16198;DHT22;8206;51.440;6.914;2022-10-16T13:08:12;18.30;1.00
16198;DHT22;8206;51.440;6.914;2022-10-16T13:10:54;18.30;1.00
16198;DHT22;8206;51.440;6.914;2022-10-16T13:13:49;18.10;1.00
16198;DHT22;8206;51.440;6.914;2022-10-16T13:16:24;18.00;1.00
16198;DHT22;8206;51.440;6.914;2022-10-16T13:19:02;17.90;1.00
16198;DHT22;8206;51.440;6.914;2022-10-16T13:21:39;17.90;1.00
16198;DHT22;8206;51.440;6.914;2022-10-16T13:24:18;18.20;1.00
16198;DHT22;8206;51.440;6.914;2022-10-16T13:26:55;18.20;1.00
16198;DHT22;8206;51.440;6.914;2022-10-16T13:29:23;18.10;1.00
16198;DHT22;8206;51.440;6.914;2022-10-16T13:31:55;18.10;1.00
16198;DHT22;8206;51.440;6.914;2022-10-16T13:34:22;18.00;1.00
16198;DHT22;8206;51.440;6.914;2022-10-16T13:36:51;18.00;1.00
16198;DHT22;8206;51.440;6.914;2022-10-16T13:39:22;17.90;1.00
16198;DHT22;8206;51.440;6.914;2022-10-16T13:42:01;17.90;1.00
16198;DHT22;8206;51.440;6.914;2022-10-16T13:44:35;18.00;1.00
16198;DHT22;8206;51.440;6.914;2022-10-16T13:47:03;18.00;1.00
16198;DHT22;8206;51.440;6.914;2022-10-16T13:49:30;18.20;1.00
16198;DHT22;8206;51.440;6.914;2022-10-16T13:51:57;18.30;1.00
16198;DHT22;8206;51.440;6.914;2022-10-16T13:54:25;18.50;1.00
16198;DHT22;8206;51.440;6.914;2022-10-16T13:56:52;18.60;1.00
16198;DHT22;8206;51.440;6.914;2022-10-16T13:59:25;18.70;1.00
16198;DHT22;8206;51.440;6.914;2022-10-16T14:01:54;18.80;1.00
16198;DHT22;8206;51.440;6.914;2022-10-16T14:04:22;19.00;1.00
16198;DHT22;8206;51.440;6.914;2022-10-16T14:06:51;19.20;1.00
16198;DHT22;8206;51.440;6.914;2022-10-16T14:09:22;19.20;1.00
16198;DHT22;8206;51.440;6.914;2022-10-16T14:11:53;19.20;1.00
16198;DHT22;8206;51.440;6.914;2022-10-16T14:14:21;19.10;1.00
16198;DHT22;8206;51.440;6.914;2022-10-16T14:16:50;19.00;1.00
16198;DHT22;8206;51.440;6.914;2022-10-16T14:19:20;18.70;1.00
16198;DHT22;8206;51.440;6.914;2022-10-16T14:21:49;18.50;1.00
16198;DHT22;8206;51.440;6.914;2022-10-16T14:24:25;18.30;1.00
16198;DHT22;8206;51.440;6.914;2022-10-16T14:26:52;18.30;1.00
16198;DHT22;8206;51.440;6.914;2022-10-16T14:29:20;18.30;1.00
16198;DHT22;8206;51.440;6.914;2022-10-16T14:31:56;18.30;1.00
16198;DHT22;8206;51.440;6.914;2022-10-16T14:34:29;18.40;1.00
16198;DHT22;8206;51.440;6.914;2022-10-16T14:36:58;18.40;1.00
16198;DHT22;8206;51.440;6.914;2022-10-16T14:39:26;18.50;1.00
16198;DHT22;8206;51.440;6.914;2022-10-16T14:41:56;18.60;1.00
16198;DHT22;8206;51.440;6.914;2022-10-16T14:44:27;18.70;1.00
16198;DHT22;8206;51.440;6.914;2022-10-16T14:46:56;18.70;1.00
16198;DHT22;8206;51.440;6.914;2022-10-16T14:49:25;18.70;1.00
16198;DHT22;8206;51.440;6.914;2022-10-16T14:51:53;18.70;1.00
16198;DHT22;8206;51.440;6.914;2022-10-16T14:54:20;18.70;1.00
16198;DHT22;8206;51.440;6.914;2022-10-16T14:56:50;18.70;1.00
16198;DHT22;8206;51.440;6.914;2022-10-16T14:59:24;18.70;1.00
16198;DHT22;8206;51.440;6.914;2022-10-16T15:01:52;18.70;1.00
16198;DHT22;8206;51.440;6.914;2022-10-16T15:04:20;18.70;1.00
16198;DHT22;8206;51.440;6.914;2022-10-16T15:06:47;18.70;1.00
16198;DHT22;8206;51.440;6.914;2022-10-16T15:09:13;18.70;1.00
16198;DHT22;8206;51.440;6.914;2022-10-16T15:11:41;18.60;1.00
16198;DHT22;8206;51.440;6.914;2022-10-16T15:14:11;18.50;1.00
16198;DHT22;8206;51.440;6.914;2022-10-16T15:16:38;18.40;1.00
16198;DHT22;8206;51.440;6.914;2022-10-16T15:19:05;18.30;1.00
16198;DHT22;8206;51.440;6.914;2022-10-16T15:21:33;18.20;1.00
16198;DHT22;8206;51.440;6.914;2022-10-16T15:24:00;18.10;1.00
16198;DHT22;8206;51.440;6.914;2022-10-16T15:26:28;18.20;1.00
16198;DHT22;8206;51.440;6.914;2022-10-16T15:28:55;18.10;1.00
16198;DHT22;8206;51.440;6.914;2022-10-16T15:31:23;18.10;1.00
16198;DHT22;8206;51.440;6.914;2022-10-16T15:33:50;18.10;1.00
16198;DHT22;8206;51.440;6.914;2022-10-16T15:36:25;18.00;1.00
16198;DHT22;8206;51.440;6.914;2022-10-16T15:38:53;18.00;1.00
16198;DHT22;8206;51.440;6.914;2022-10-16T15:41:20;18.00;1.00
16198;DHT22;8206;51.440;6.914;2022-10-16T15:43:48;17.90;1.00
16198;DHT22;8206;51.440;6.914;2022-10-16T15:46:17;17.90;1.00
16198;DHT22;8206;51.440;6.914;2022-10-16T15:48:44;17.80;1.00
16198;DHT22;8206;51.440;6.914;2022-10-16T15:51:11;17.80;1.00
16198;DHT22;8206;51.440;6.914;2022-10-16T15:53:37;17.80;1.00
16198;DHT22;8206;51.440;6.914;2022-10-16T15:56:07;17.70;1.00
16198;DHT22;8206;51.440;6.914;2022-10-16T15:58:34;17.60;1.00
16198;DHT22;8206;51.440;6.914;2022-10-16T16:01:02;17.60;1.00
16198;DHT22;8206;51.440;6.914;2022-10-16T16:03:29;17.50;1.00
16198;DHT22;8206;51.440;6.914;2022-10-16T16:05:56;17.40;1.00
16198;DHT22;8206;51.440;6.914;2022-10-16T16:08:23;17.30;1.00
16198;DHT22;8206;51.440;6.914;2022-10-16T16:10:57;17.30;1.00
16198;DHT22;8206;51.440;6.914;2022-10-16T16:13:26;17.20;1.00
16198;DHT22;8206;51.440;6.914;2022-10-16T16:15:52;17.20;1.00